Time;durP1;ratioP1;P1;durP2;ratioP2;P2;SDS_P1;SDS_P2;PMS_P1;PMS_P2;Temp;Humidity;BMP_temperature;BMP_pressure;BME280_temperature;BME280_humidity;BME280_pressure;Samples;Min_cycle;Max_cycle;Signal;HPM_P1;HPM_P2
2022/12/13 00:01:55;;;;;;;;;;;22.80;59.10;;;;;;5050621;28;19912;-67
2022/12/13 00:04:22;;;;;;;;;;;22.90;59.20;;;;;;5057580;28;19913;-69
2022/12/13 00:06:49;;;;;;;;;;;22.90;59.40;;;;;;5053326;28;19916;-67
2022/12/13 00:09:17;;;;;;;;;;;23.10;59.50;;;;;;5056456;28;19924;-69
2022/12/13 00:11:44;;;;;;;;;;;23.20;59.00;;;;;;5056347;28;20382;-67
2022/12/13 00:14:12;;;;;;;;;;;23.30;59.00;;;;;;5055288;28;19904;-68
2022/12/13 00:16:39;;;;;;;;;;;23.30;57.80;;;;;;5050743;28;19916;-69
2022/12/13 00:19:06;;;;;;;;;;;23.20;58.30;;;;;;5037903;28;19925;-69
2022/12/13 00:21:33;;;;;;;;;;;23.30;58.20;;;;;;5043935;28;19956;-69
2022/12/13 00:24:00;;;;;;;;;;;23.40;58.90;;;;;;5044174;28;19947;-68
2022/12/13 00:26:28;;;;;;;;;;;23.40;58.60;;;;;;5048366;28;19924;-69
2022/12/13 00:28:55;;;;;;;;;;;23.40;57.90;;;;;;5053182;28;19909;-69
2022/12/13 00:31:23;;;;;;;;;;;23.40;58.40;;;;;;5056649;28;19960;-68
2022/12/13 00:33:50;;;;;;;;;;;23.50;58.40;;;;;;5054744;28;19909;-72
2022/12/13 00:36:16;;;;;;;;;;;23.70;58.80;;;;;;5056016;28;19912;-69
2022/12/13 00:38:43;;;;;;;;;;;23.60;58.80;;;;;;5054256;28;19956;-70
2022/12/13 00:41:14;;;;;;;;;;;23.80;58.70;;;;;;5053757;28;20671;-71
2022/12/13 00:43:40;;;;;;;;;;;24.00;59.40;;;;;;5038866;28;20729;-69
2022/12/13 00:46:17;;;;;;;;;;;24.10;59.00;;;;;;5043147;28;19931;-70
2022/12/13 00:48:47;;;;;;;;;;;24.30;58.50;;;;;;5051789;28;20634;-69
2022/12/13 00:51:14;;;;;;;;;;;24.30;58.90;;;;;;5046650;28;20015;-69
2022/12/13 00:53:41;;;;;;;;;;;24.50;58.20;;;;;;5035714;28;20069;-69
2022/12/13 00:56:11;;;;;;;;;;;24.50;57.20;;;;;;5033718;28;19909;-68
2022/12/13 00:58:39;;;;;;;;;;;24.50;57.60;;;;;;5052471;28;19908;-71
2022/12/13 01:01:10;;;;;;;;;;;24.60;56.70;;;;;;5051046;28;20345;-70
2022/12/13 01:03:37;;;;;;;;;;;24.70;57.00;;;;;;5054051;28;19912;-70
2022/12/13 01:06:10;;;;;;;;;;;24.90;56.60;;;;;;5048181;28;19928;-69
2022/12/13 01:08:37;;;;;;;;;;;25.00;56.00;;;;;;5042634;28;19917;-67
2022/12/13 01:11:06;;;;;;;;;;;25.00;56.60;;;;;;5030607;28;19909;-67
2022/12/13 01:13:33;;;;;;;;;;;25.10;56.80;;;;;;5034441;28;19954;-68
2022/12/13 01:16:01;;;;;;;;;;;25.10;57.20;;;;;;5042023;28;20435;-68
2022/12/13 01:18:28;;;;;;;;;;;25.30;56.60;;;;;;5054177;28;19909;-71
2022/12/13 01:20:58;;;;;;;;;;;25.30;56.90;;;;;;5054206;28;20046;-69
2022/12/13 01:23:25;;;;;;;;;;;25.40;55.90;;;;;;5043713;28;19920;-68
2022/12/13 01:25:51;;;;;;;;;;;25.30;56.40;;;;;;5054151;28;20015;-67
2022/12/13 01:28:19;;;;;;;;;;;25.60;58.30;;;;;;5052658;28;19908;-70
2022/12/13 01:30:52;;;;;;;;;;;25.90;57.80;;;;;;5053953;28;19951;-68
2022/12/13 01:33:19;;;;;;;;;;;26.10;56.80;;;;;;5052593;28;20716;-70
2022/12/13 01:35:46;;;;;;;;;;;26.20;55.90;;;;;;5053919;28;19919;-69
2022/12/13 01:38:12;;;;;;;;;;;26.10;55.80;;;;;;5052273;28;20004;-69
2022/12/13 01:40:43;;;;;;;;;;;26.20;56.20;;;;;;5055279;28;19909;-68
2022/12/13 01:43:12;;;;;;;;;;;26.40;56.50;;;;;;5045215;28;19924;-68
2022/12/13 01:45:38;;;;;;;;;;;26.40;56.20;;;;;;5045349;28;20363;-69
2022/12/13 01:48:07;;;;;;;;;;;26.50;54.90;;;;;;5036110;28;20369;-68
2022/12/13 01:50:37;;;;;;;;;;;26.50;55.80;;;;;;5033741;28;19913;-70
2022/12/13 01:53:06;;;;;;;;;;;26.70;55.00;;;;;;5031828;28;19913;-68
2022/12/13 01:55:34;;;;;;;;;;;26.70;54.40;;;;;;5033672;28;19909;-68
2022/12/13 01:58:02;;;;;;;;;;;26.80;55.30;;;;;;5045464;28;19912;-69
2022/12/13 02:00:29;;;;;;;;;;;26.90;54.40;;;;;;5052753;28;19908;-68
2022/12/13 02:02:57;;;;;;;;;;;26.90;54.80;;;;;;5039196;28;19931;-67
2022/12/13 02:05:23;;;;;;;;;;;26.90;54.40;;;;;;5042084;28;20431;-69
2022/12/13 02:07:50;;;;;;;;;;;26.90;53.00;;;;;;5046831;28;19954;-70
2022/12/13 02:10:17;;;;;;;;;;;27.20;53.60;;;;;;5051617;28;19919;-67
2022/12/13 02:12:44;;;;;;;;;;;27.30;55.20;;;;;;5054532;28;19909;-68
2022/12/13 02:15:13;;;;;;;;;;;27.50;54.00;;;;;;5043352;28;19917;-68
2022/12/13 02:17:58;;;;;;;;;;;27.40;53.60;;;;;;5047170;28;20003;-69
2022/12/13 02:20:40;;;;;;;;;;;27.50;53.10;;;;;;5049441;28;19920;-68
2022/12/13 02:23:19;;;;;;;;;;;27.80;54.80;;;;;;5050997;28;20285;-69
2022/12/13 02:25:49;;;;;;;;;;;27.90;54.00;;;;;;5034091;28;20259;-69
2022/12/13 02:28:21;;;;;;;;;;;27.90;52.70;;;;;;5047996;28;19908;-68
2022/12/13 02:30:53;;;;;;;;;;;28.20;53.20;;;;;;5055248;28;19954;-68
2022/12/13 02:33:23;;;;;;;;;;;28.30;55.50;;;;;;5050133;28;19962;-67
2022/12/13 02:36:01;;;;;;;;;;;28.40;55.50;;;;;;5056190;28;19909;-68
2022/12/13 02:38:37;;;;;;;;;;;28.30;56.10;;;;;;5051799;28;19909;-69
2022/12/13 02:41:08;;;;;;;;;;;28.30;55.80;;;;;;5054353;28;19908;-69
2022/12/13 02:43:39;;;;;;;;;;;28.60;54.50;;;;;;5048699;28;19912;-68
2022/12/13 02:46:07;;;;;;;;;;;28.70;56.60;;;;;;5053788;28;20273;-68
2022/12/13 02:48:35;;;;;;;;;;;28.90;54.80;;;;;;5056046;28;19974;-70
2022/12/13 02:51:04;;;;;;;;;;;28.90;55.30;;;;;;5057711;28;19920;-71
2022/12/13 02:53:31;;;;;;;;;;;29.10;55.80;;;;;;5056053;28;19905;-71
2022/12/13 02:55:58;;;;;;;;;;;29.70;54.20;;;;;;5058869;28;20415;-71
2022/12/13 02:58:31;;;;;;;;;;;30.00;55.30;;;;;;5055485;28;19912;-71
2022/12/13 03:01:16;;;;;;;;;;;30.60;51.50;;;;;;5058004;28;19908;-72
2022/12/13 03:04:01;;;;;;;;;;;31.40;53.70;;;;;;5051912;28;19913;-70
2022/12/13 03:06:46;;;;;;;;;;;31.90;50.90;;;;;;5036659;28;19967;-70
2022/12/13 03:09:15;;;;;;;;;;;32.30;50.50;;;;;;5057701;28;19923;-72
2022/12/13 03:14:38;;;;;;;;;;;33.00;51.80;;;;;;5055300;28;20659;-72
2022/12/13 03:17:06;;;;;;;;;;;32.70;49.90;;;;;;5056801;28;19924;-72
2022/12/13 03:19:33;;;;;;;;;;;33.60;51.70;;;;;;5057555;28;20003;-72
2022/12/13 03:22:00;;;;;;;;;;;33.90;50.10;;;;;;5056548;28;19912;-71
2022/12/13 03:24:26;;;;;;;;;;;34.50;50.60;;;;;;5055331;28;19922;-72
2022/12/13 03:26:53;;;;;;;;;;;34.80;47.20;;;;;;5057286;28;19991;-75
2022/12/13 03:29:20;;;;;;;;;;;34.50;48.50;;;;;;5056399;28;20372;-72
2022/12/13 03:31:46;;;;;;;;;;;34.60;48.10;;;;;;5058784;28;19908;-72
2022/12/13 03:34:13;;;;;;;;;;;34.50;48.30;;;;;;5058355;28;20369;-72
2022/12/13 03:36:40;;;;;;;;;;;34.70;49.30;;;;;;5048330;28;20071;-72
2022/12/13 03:39:06;;;;;;;;;;;34.60;49.80;;;;;;5051635;28;19935;-70
2022/12/13 03:41:34;;;;;;;;;;;34.60;50.40;;;;;;5044643;28;19995;-71
2022/12/13 03:44:04;;;;;;;;;;;34.80;50.90;;;;;;5053827;28;20265;-72
2022/12/13 03:46:31;;;;;;;;;;;35.50;49.20;;;;;;5048918;28;19927;-70
2022/12/13 03:48:58;;;;;;;;;;;34.90;51.00;;;;;;5051097;28;20011;-70
2022/12/13 03:51:24;;;;;;;;;;;34.70;50.80;;;;;;5049913;28;20333;-70
2022/12/13 03:53:51;;;;;;;;;;;34.70;52.20;;;;;;5047786;28;19966;-69
2022/12/13 03:56:18;;;;;;;;;;;34.60;50.00;;;;;;5045740;28;19981;-70
2022/12/13 03:58:44;;;;;;;;;;;34.60;49.80;;;;;;5039925;28;19923;-70
2022/12/13 04:01:12;;;;;;;;;;;34.50;50.60;;;;;;5036868;28;20154;-70
2022/12/13 04:03:40;;;;;;;;;;;34.70;51.00;;;;;;5046377;28;19909;-70
2022/12/13 04:06:06;;;;;;;;;;;34.80;51.30;;;;;;5051458;28;19916;-70
2022/12/13 04:08:33;;;;;;;;;;;34.40;51.90;;;;;;5051837;27;20007;-71
2022/12/13 04:13:31;;;;;;;;;;;33.60;51.80;;;;;;5056591;28;19958;-69
2022/12/13 04:13:46;;;;;;;;;;;34.20;51.50;;;;;;5052960;28;20714;-69
2022/12/13 04:16:13;;;;;;;;;;;35.10;50.20;;;;;;5056555;28;20394;-71
2022/12/13 04:18:40;;;;;;;;;;;35.50;49.70;;;;;;5045400;28;20257;-70
2022/12/13 04:21:06;;;;;;;;;;;35.60;48.90;;;;;;5053308;28;19916;-71
2022/12/13 04:23:33;;;;;;;;;;;35.60;49.10;;;;;;5050661;28;20010;-70
2022/12/13 04:26:00;;;;;;;;;;;35.10;49.60;;;;;;5052426;28;19924;-70
2022/12/13 04:28:27;;;;;;;;;;;34.20;50.80;;;;;;5054028;28;19916;-71
2022/12/13 04:30:53;;;;;;;;;;;34.10;51.10;;;;;;5052792;28;19913;-73
2022/12/13 04:33:21;;;;;;;;;;;34.20;49.80;;;;;;5056829;28;19908;-71
2022/12/13 04:35:47;;;;;;;;;;;35.00;49.80;;;;;;5049847;28;20638;-72
2022/12/13 04:38:14;;;;;;;;;;;35.20;50.40;;;;;;5051487;28;19917;-72
2022/12/13 04:40:41;;;;;;;;;;;35.00;49.30;;;;;;5047071;28;19991;-72
2022/12/13 04:43:08;;;;;;;;;;;34.90;49.50;;;;;;5046692;28;20789;-72
2022/12/13 04:45:34;;;;;;;;;;;34.90;49.40;;;;;;5053112;28;19947;-73
2022/12/13 04:48:01;;;;;;;;;;;34.70;50.10;;;;;;5053284;28;20250;-73
2022/12/13 04:50:28;;;;;;;;;;;34.70;50.20;;;;;;5054158;28;20339;-72
2022/12/13 04:52:54;;;;;;;;;;;34.70;48.70;;;;;;5050028;28;20569;-71
2022/12/13 04:55:21;;;;;;;;;;;34.60;49.00;;;;;;5036369;28;20631;-70
2022/12/13 04:57:48;;;;;;;;;;;34.00;49.20;;;;;;5043239;28;19912;-72
2022/12/13 05:00:15;;;;;;;;;;;33.70;50.10;;;;;;5054825;28;19966;-71
2022/12/13 05:02:41;;;;;;;;;;;33.20;49.90;;;;;;5056112;28;19908;-69
2022/12/13 05:05:08;;;;;;;;;;;34.20;49.80;;;;;;5054407;28;19980;-69
2022/12/13 05:07:35;;;;;;;;;;;34.90;48.90;;;;;;5053816;28;19912;-69
2022/12/13 05:10:02;;;;;;;;;;;36.10;48.10;;;;;;5053491;28;19912;-71
2022/12/13 05:12:28;;;;;;;;;;;35.60;48.80;;;;;;5054497;28;19908;-67
2022/12/13 05:14:55;;;;;;;;;;;34.80;48.90;;;;;;5054634;28;19948;-69
2022/12/13 05:17:22;;;;;;;;;;;35.00;49.60;;;;;;5054945;28;20010;-71
2022/12/13 05:19:48;;;;;;;;;;;35.30;49.10;;;;;;5054590;28;19912;-73
2022/12/13 05:22:15;;;;;;;;;;;35.00;49.60;;;;;;5052006;28;19932;-75
2022/12/13 05:24:43;;;;;;;;;;;34.80;50.20;;;;;;5055243;28;20391;-73
2022/12/13 05:27:10;;;;;;;;;;;34.40;50.70;;;;;;5039393;28;19913;-69
2022/12/13 05:29:37;;;;;;;;;;;34.30;51.40;;;;;;5051175;28;19912;-72
2022/12/13 05:32:04;;;;;;;;;;;34.10;51.30;;;;;;5051957;28;19916;-69
2022/12/13 05:34:31;;;;;;;;;;;33.70;52.20;;;;;;5054825;28;19917;-73
2022/12/13 05:36:57;;;;;;;;;;;33.10;52.60;;;;;;5052806;28;20261;-70
2022/12/13 05:39:24;;;;;;;;;;;33.10;52.60;;;;;;5041167;28;20004;-71
2022/12/13 05:41:50;;;;;;;;;;;33.10;52.20;;;;;;5054268;28;19913;-73
2022/12/13 05:44:17;;;;;;;;;;;32.30;53.00;;;;;;5051544;28;19921;-72
2022/12/13 05:46:44;;;;;;;;;;;32.00;53.80;;;;;;5054365;28;19915;-70
2022/12/13 05:49:11;;;;;;;;;;;31.40;54.70;;;;;;5051345;28;19908;-76
2022/12/13 05:51:37;;;;;;;;;;;30.70;56.10;;;;;;5054505;28;19952;-69
2022/12/13 05:54:04;;;;;;;;;;;30.40;56.70;;;;;;5049137;28;19916;-69
2022/12/13 05:56:31;;;;;;;;;;;29.40;58.50;;;;;;5052859;28;20158;-67
2022/12/13 05:58:57;;;;;;;;;;;28.70;60.20;;;;;;5053978;28;19919;-75
2022/12/13 06:01:24;;;;;;;;;;;28.60;60.70;;;;;;5047350;28;19913;-69
2022/12/13 06:03:50;;;;;;;;;;;28.60;60.70;;;;;;5049490;28;19927;-68
2022/12/13 06:06:17;;;;;;;;;;;28.60;60.60;;;;;;5050123;28;19928;-72
2022/12/13 06:08:44;;;;;;;;;;;28.50;60.00;;;;;;5056070;28;19962;-69
2022/12/13 06:11:11;;;;;;;;;;;28.10;60.20;;;;;;5053599;28;19909;-77
2022/12/13 06:13:38;;;;;;;;;;;28.00;61.80;;;;;;5051601;28;20276;-68
2022/12/13 06:16:05;;;;;;;;;;;28.00;60.50;;;;;;5052859;28;19912;-68
2022/12/13 06:18:33;;;;;;;;;;;27.60;60.80;;;;;;5052089;28;19916;-71
2022/12/13 06:21:01;;;;;;;;;;;27.50;62.20;;;;;;5050170;28;19913;-68
2022/12/13 06:23:29;;;;;;;;;;;26.90;61.30;;;;;;5051419;28;19938;-75
2022/12/13 06:25:56;;;;;;;;;;;26.80;63.40;;;;;;5058557;28;19927;-75
2022/12/13 06:28:23;;;;;;;;;;;27.00;62.80;;;;;;5053088;28;20450;-71
2022/12/13 06:30:52;;;;;;;;;;;27.10;63.00;;;;;;5047537;28;19915;-70
2022/12/13 06:33:19;;;;;;;;;;;27.20;63.30;;;;;;5038050;28;20369;-71
2022/12/13 06:35:46;;;;;;;;;;;27.40;62.50;;;;;;5038981;28;20418;-75
2022/12/13 06:38:13;;;;;;;;;;;27.60;63.10;;;;;;5035767;28;19946;-70
2022/12/13 06:40:41;;;;;;;;;;;27.40;63.40;;;;;;5040020;28;19912;-69
2022/12/13 06:43:08;;;;;;;;;;;26.70;64.90;;;;;;5048302;28;20046;-73
2022/12/13 06:45:38;;;;;;;;;;;26.40;66.00;;;;;;5047310;28;19916;-83
2022/12/13 06:48:05;;;;;;;;;;;26.40;66.00;;;;;;5045505;28;20397;-72
2022/12/13 06:50:32;;;;;;;;;;;26.30;65.60;;;;;;5038171;28;19923;-69
2022/12/13 06:52:58;;;;;;;;;;;26.10;66.20;;;;;;5049995;28;19912;-68
2022/12/13 06:55:25;;;;;;;;;;;26.10;67.70;;;;;;5054452;28;20308;-70
2022/12/13 06:57:51;;;;;;;;;;;26.30;67.60;;;;;;5050192;28;19969;-69
2022/12/13 07:00:18;;;;;;;;;;;26.10;66.30;;;;;;5039044;28;20318;-72
2022/12/13 07:02:50;;;;;;;;;;;25.90;67.30;;;;;;5051626;28;19962;-70
2022/12/13 07:05:17;;;;;;;;;;;25.50;68.70;;;;;;5055172;28;20596;-69
2022/12/13 07:07:44;;;;;;;;;;;25.40;69.90;;;;;;5054189;28;19954;-70
2022/12/13 07:10:11;;;;;;;;;;;25.40;70.50;;;;;;5056137;28;19913;-69
2022/12/13 07:12:37;;;;;;;;;;;25.20;69.40;;;;;;5052946;28;19974;-69
2022/12/13 07:15:04;;;;;;;;;;;25.30;70.70;;;;;;5056334;28;19908;-74
2022/12/13 07:17:31;;;;;;;;;;;25.40;70.30;;;;;;5052198;28;20438;-71
2022/12/13 07:19:57;;;;;;;;;;;25.50;70.30;;;;;;5054788;28;20203;-71
2022/12/13 07:22:24;;;;;;;;;;;25.50;70.60;;;;;;5053534;28;19915;-70
2022/12/13 07:24:51;;;;;;;;;;;25.20;70.90;;;;;;5050625;28;19950;-68
2022/12/13 07:27:17;;;;;;;;;;;25.30;71.10;;;;;;5035040;28;19913;-68
2022/12/13 07:29:44;;;;;;;;;;;25.30;71.00;;;;;;5036122;28;19920;-69
2022/12/13 07:32:11;;;;;;;;;;;25.10;71.60;;;;;;5055725;28;19908;-69
2022/12/13 07:34:37;;;;;;;;;;;25.10;71.40;;;;;;5053517;28;20562;-68
2022/12/13 07:37:04;;;;;;;;;;;24.90;72.00;;;;;;5057595;28;19909;-68
2022/12/13 07:39:31;;;;;;;;;;;24.70;71.80;;;;;;5056172;28;19912;-68
2022/12/13 07:41:57;;;;;;;;;;;24.30;70.30;;;;;;5042418;28;19912;-69
2022/12/13 07:44:24;;;;;;;;;;;24.20;71.10;;;;;;5039419;28;20024;-69
2022/12/13 07:46:50;;;;;;;;;;;24.00;72.30;;;;;;5033413;28;19908;-69
2022/12/13 07:49:17;;;;;;;;;;;23.70;73.70;;;;;;5036985;28;19917;-69
2022/12/13 07:51:44;;;;;;;;;;;23.80;73.80;;;;;;5053542;28;20278;-70
2022/12/13 07:54:10;;;;;;;;;;;23.60;73.60;;;;;;5038872;28;19917;-68
2022/12/13 07:56:37;;;;;;;;;;;23.60;74.10;;;;;;5051931;28;19913;-70
2022/12/13 07:59:04;;;;;;;;;;;23.60;73.50;;;;;;5046980;28;20203;-68
2022/12/13 08:01:33;;;;;;;;;;;23.60;74.20;;;;;;5050380;28;19954;-70
2022/12/13 08:04:00;;;;;;;;;;;23.50;73.50;;;;;;5052317;28;19930;-71
2022/12/13 08:06:26;;;;;;;;;;;23.40;73.00;;;;;;5054405;28;20734;-69
2022/12/13 08:08:57;;;;;;;;;;;23.30;74.00;;;;;;5051825;28;19915;-70
2022/12/13 08:11:24;;;;;;;;;;;23.20;75.50;;;;;;5054810;28;19948;-74
2022/12/13 08:13:50;;;;;;;;;;;23.00;76.70;;;;;;5054724;28;19962;-70
2022/12/13 08:16:17;;;;;;;;;;;22.90;77.60;;;;;;5054100;28;19917;-68
2022/12/13 08:18:46;;;;;;;;;;;22.80;78.40;;;;;;5055594;28;20017;-68
2022/12/13 08:21:13;;;;;;;;;;;22.60;78.90;;;;;;5051589;28;19947;-69
2022/12/13 08:23:40;;;;;;;;;;;22.50;80.00;;;;;;5044240;28;19959;-67
2022/12/13 08:26:06;;;;;;;;;;;22.40;80.30;;;;;;4923572;28;3590007;-70
2022/12/13 08:28:34;;;;;;;;;;;22.40;80.40;;;;;;5056382;28;20284;-68
2022/12/13 08:31:10;;;;;;;;;;;22.40;79.80;;;;;;5053421;28;20011;-69
2022/12/13 08:33:37;;;;;;;;;;;22.30;79.90;;;;;;5057299;28;19908;-71
2022/12/13 08:36:11;;;;;;;;;;;22.30;80.60;;;;;;5056299;28;19912;-72
2022/12/13 08:38:38;;;;;;;;;;;22.30;80.60;;;;;;5054237;28;19950;-69
2022/12/13 08:41:05;;;;;;;;;;;22.30;80.60;;;;;;5050209;28;19919;-74
2022/12/13 08:43:31;;;;;;;;;;;22.20;80.90;;;;;;5053648;28;19908;-69
2022/12/13 08:45:58;;;;;;;;;;;22.10;81.40;;;;;;5056689;28;19958;-68
2022/12/13 08:48:25;;;;;;;;;;;22.10;81.60;;;;;;5054835;28;19983;-75
2022/12/13 08:50:52;;;;;;;;;;;22.10;81.50;;;;;;5048127;28;19912;-69
2022/12/13 08:53:18;;;;;;;;;;;22.00;82.20;;;;;;5055093;28;19999;-71
2022/12/13 08:55:45;;;;;;;;;;;21.90;82.70;;;;;;5057429;28;20087;-69
2022/12/13 08:58:13;;;;;;;;;;;21.90;82.70;;;;;;5055905;28;19908;-69
2022/12/13 09:00:45;;;;;;;;;;;21.90;82.80;;;;;;5045566;28;19909;-78
2022/12/13 09:03:11;;;;;;;;;;;21.80;83.20;;;;;;5055977;28;20007;-70
2022/12/13 09:05:38;;;;;;;;;;;21.80;83.40;;;;;;5055092;28;19977;-72
2022/12/13 09:08:05;;;;;;;;;;;21.80;83.30;;;;;;5055767;28;20458;-69
2022/12/13 09:10:31;;;;;;;;;;;21.80;82.40;;;;;;5054099;28;19931;-72
2022/12/13 09:13:00;;;;;;;;;;;21.80;83.00;;;;;;5055121;28;19913;-72
2022/12/13 09:15:27;;;;;;;;;;;21.70;83.00;;;;;;5053892;28;19916;-70
2022/12/13 09:17:54;;;;;;;;;;;21.70;83.10;;;;;;5055904;28;19912;-71
2022/12/13 09:20:20;;;;;;;;;;;21.80;83.10;;;;;;5046385;28;19912;-71
2022/12/13 09:22:47;;;;;;;;;;;21.70;83.40;;;;;;5050159;28;20679;-71
2022/12/13 09:25:14;;;;;;;;;;;21.70;84.00;;;;;;5056132;28;19924;-70
2022/12/13 09:27:41;;;;;;;;;;;21.60;84.20;;;;;;5055488;28;19904;-72
2022/12/13 09:30:11;;;;;;;;;;;21.60;84.20;;;;;;5056287;28;19919;-69
2022/12/13 09:32:39;;;;;;;;;;;21.60;84.40;;;;;;5051785;28;19909;-75
2022/12/13 09:35:06;;;;;;;;;;;21.60;84.10;;;;;;5056863;28;19940;-76
2022/12/13 09:37:33;;;;;;;;;;;21.50;84.60;;;;;;5040044;28;20490;-71
2022/12/13 09:40:00;;;;;;;;;;;21.50;85.10;;;;;;5052493;28;19912;-72
2022/12/13 09:42:29;;;;;;;;;;;21.40;85.10;;;;;;5049646;28;19912;-71
2022/12/13 09:44:57;;;;;;;;;;;21.40;85.00;;;;;;5037353;28;20003;-68
2022/12/13 09:47:28;;;;;;;;;;;21.30;85.00;;;;;;5038847;28;19912;-72
2022/12/13 09:49:55;;;;;;;;;;;21.30;85.10;;;;;;5033918;28;19909;-69
2022/12/13 09:52:23;;;;;;;;;;;21.30;85.30;;;;;;5036083;28;19912;-68
2022/12/13 09:54:53;;;;;;;;;;;21.30;85.00;;;;;;5030907;28;19955;-69
2022/12/13 09:57:30;;;;;;;;;;;21.20;85.40;;;;;;5051601;28;20434;-70
2022/12/13 09:59:56;;;;;;;;;;;21.20;85.60;;;;;;5051674;28;19931;-69
2022/12/13 10:02:26;;;;;;;;;;;21.20;85.80;;;;;;5056032;28;20015;-68
2022/12/13 10:04:54;;;;;;;;;;;21.10;86.10;;;;;;5054172;28;20011;-68
2022/12/13 10:07:22;;;;;;;;;;;21.10;86.40;;;;;;5057088;28;19908;-69
2022/12/13 10:09:52;;;;;;;;;;;21.20;86.70;;;;;;5050874;28;19912;-68
2022/12/13 10:12:18;;;;;;;;;;;21.20;87.00;;;;;;5056111;28;19954;-69
2022/12/13 10:14:50;;;;;;;;;;;21.20;87.30;;;;;;5050283;28;20031;-70
2022/12/13 10:17:20;;;;;;;;;;;21.20;87.40;;;;;;5048057;28;19929;-70
2022/12/13 10:19:50;;;;;;;;;;;21.10;87.70;;;;;;5031540;28;20571;-70
2022/12/13 10:22:18;;;;;;;;;;;21.10;87.90;;;;;;5034823;28;20353;-69
2022/12/13 10:24:47;;;;;;;;;;;21.10;88.10;;;;;;5043314;28;19928;-69
2022/12/13 10:27:35;;;;;;;;;;;21.10;88.10;;;;;;5055222;28;19908;-73
2022/12/13 10:30:07;;;;;;;;;;;21.10;88.40;;;;;;5048904;28;20361;-68
2022/12/13 10:32:42;;;;;;;;;;;21.10;88.30;;;;;;5054398;28;19919;-70
2022/12/13 10:35:22;;;;;;;;;;;21.00;88.40;;;;;;5053720;28;20037;-69
2022/12/13 10:37:49;;;;;;;;;;;20.90;88.70;;;;;;5052793;28;19957;-68
2022/12/13 10:40:26;;;;;;;;;;;20.90;88.90;;;;;;5054454;28;19961;-69
2022/12/13 10:43:08;;;;;;;;;;;20.80;89.10;;;;;;5045726;28;20233;-69
2022/12/13 10:45:35;;;;;;;;;;;20.90;89.20;;;;;;5054123;28;19920;-68
2022/12/13 10:48:02;;;;;;;;;;;20.90;88.70;;;;;;5051801;28;20023;-68
2022/12/13 10:50:29;;;;;;;;;;;20.80;88.80;;;;;;5055191;28;19995;-70
2022/12/13 10:52:59;;;;;;;;;;;20.80;88.90;;;;;;5052487;28;19931;-68
2022/12/13 10:55:38;;;;;;;;;;;20.80;89.10;;;;;;5054058;28;19912;-70
2022/12/13 10:58:08;;;;;;;;;;;20.80;88.60;;;;;;5051784;28;19908;-69
2022/12/13 11:00:35;;;;;;;;;;;20.80;88.40;;;;;;5036654;28;19972;-77
2022/12/13 11:03:01;;;;;;;;;;;20.80;88.30;;;;;;5034115;28;19916;-69
2022/12/13 11:05:32;;;;;;;;;;;20.80;88.20;;;;;;5052466;28;20383;-69
2022/12/13 11:08:16;;;;;;;;;;;20.90;88.70;;;;;;5049680;28;19917;-70
2022/12/13 11:10:43;;;;;;;;;;;20.80;88.10;;;;;;5039420;28;19913;-71
2022/12/13 11:13:21;;;;;;;;;;;20.80;88.30;;;;;;5035623;28;19963;-69
2022/12/13 11:15:53;;;;;;;;;;;20.80;88.00;;;;;;5040453;28;19909;-68
2022/12/13 11:18:21;;;;;;;;;;;20.70;88.00;;;;;;5034810;28;20002;-68
2022/12/13 11:20:54;;;;;;;;;;;20.70;88.20;;;;;;5040181;28;20018;-70
2022/12/13 11:23:42;;;;;;;;;;;20.60;88.30;;;;;;5037380;28;19913;-69
2022/12/13 11:26:14;;;;;;;;;;;20.60;88.40;;;;;;5040105;28;20011;-75
2022/12/13 11:28:53;;;;;;;;;;;20.50;88.40;;;;;;5036236;28;19927;-68
2022/12/13 11:31:20;;;;;;;;;;;20.50;88.90;;;;;;5038070;28;19924;-68
2022/12/13 11:33:46;;;;;;;;;;;20.40;88.80;;;;;;5034327;28;19948;-67
2022/12/13 11:36:51;;;;;;;;;;;20.50;89.40;;;;;;5038134;28;19959;-69
2022/12/13 11:39:25;;;;;;;;;;;20.50;89.80;;;;;;4976302;28;19961;-71
2022/12/13 11:41:58;;;;;;;;;;;20.50;89.80;;;;;;4972929;28;19921;-68
2022/12/13 11:44:44;;;;;;;;;;;20.60;89.90;;;;;;5010970;28;19951;-69
2022/12/13 11:47:17;;;;;;;;;;;20.60;90.00;;;;;;5037561;28;19964;-68
2022/12/13 11:49:45;;;;;;;;;;;20.60;90.00;;;;;;5033748;28;20007;-69
2022/12/13 11:52:24;;;;;;;;;;;20.70;90.10;;;;;;5037770;28;19913;-68
2022/12/13 11:54:51;;;;;;;;;;;20.60;90.10;;;;;;5034822;28;19991;-68
2022/12/13 11:57:37;;;;;;;;;;;20.70;90.20;;;;;;5038719;28;19920;-67
2022/12/13 12:00:10;;;;;;;;;;;20.60;90.20;;;;;;5044337;28;19935;-70
2022/12/13 12:02:41;;;;;;;;;;;20.50;90.60;;;;;;5055744;28;19912;-67
2022/12/13 12:05:19;;;;;;;;;;;20.50;90.30;;;;;;5055711;28;20345;-69
2022/12/13 12:07:53;;;;;;;;;;;20.50;90.20;;;;;;5055195;28;19921;-69
2022/12/13 12:10:23;;;;;;;;;;;20.40;90.30;;;;;;5056731;28;20682;-68
2022/12/13 12:12:52;;;;;;;;;;;20.30;90.30;;;;;;5054922;28;19970;-69
2022/12/13 12:15:24;;;;;;;;;;;20.30;90.30;;;;;;5054095;28;20369;-69
2022/12/13 12:17:51;;;;;;;;;;;20.30;90.30;;;;;;5053449;28;20011;-68
2022/12/13 12:20:26;;;;;;;;;;;20.30;90.60;;;;;;5055980;28;19916;-69
2022/12/13 12:23:04;;;;;;;;;;;20.30;90.60;;;;;;5054601;28;19920;-69
2022/12/13 12:25:48;;;;;;;;;;;20.20;90.60;;;;;;5056940;28;19943;-69
2022/12/13 12:28:21;;;;;;;;;;;20.20;91.20;;;;;;5055985;28;20291;-72
2022/12/13 12:30:47;;;;;;;;;;;20.20;91.40;;;;;;5052946;28;19999;-70
2022/12/13 12:33:23;;;;;;;;;;;20.20;91.80;;;;;;5055496;28;19913;-70
2022/12/13 12:36:01;;;;;;;;;;;20.10;91.60;;;;;;5054652;28;20309;-69
2022/12/13 12:38:40;;;;;;;;;;;20.10;92.10;;;;;;5056453;28;19919;-69
2022/12/13 12:41:17;;;;;;;;;;;20.10;92.30;;;;;;5052387;28;20517;-69
2022/12/13 12:43:46;;;;;;;;;;;20.00;92.20;;;;;;5055615;28;19912;-70
2022/12/13 12:46:35;;;;;;;;;;;19.90;92.60;;;;;;5053361;28;20681;-67
2022/12/13 12:49:04;;;;;;;;;;;19.90;92.80;;;;;;5053847;28;19909;-67
2022/12/13 12:51:46;;;;;;;;;;;19.80;92.90;;;;;;5056241;28;19909;-67
2022/12/13 12:54:16;;;;;;;;;;;19.80;93.10;;;;;;5053219;28;19947;-69
2022/12/13 12:56:43;;;;;;;;;;;19.70;93.10;;;;;;5057200;28;19999;-68
2022/12/13 12:59:26;;;;;;;;;;;19.70;93.20;;;;;;5052314;28;19943;-70
2022/12/13 13:01:55;;;;;;;;;;;19.70;93.20;;;;;;5053851;28;19919;-70
2022/12/13 13:04:26;;;;;;;;;;;19.60;93.20;;;;;;5055061;28;19912;-69
2022/12/13 13:06:59;;;;;;;;;;;19.60;93.10;;;;;;5054321;28;20685;-68
2022/12/13 13:09:26;;;;;;;;;;;19.50;93.30;;;;;;5055595;28;19916;-69
2022/12/13 13:12:03;;;;;;;;;;;19.50;93.80;;;;;;5054350;28;19979;-69
2022/12/13 13:14:34;;;;;;;;;;;19.50;93.80;;;;;;5055538;28;20349;-68
2022/12/13 13:17:20;;;;;;;;;;;19.50;94.20;;;;;;5054322;28;19919;-68
2022/12/13 13:19:48;;;;;;;;;;;19.50;94.40;;;;;;5055648;28;19916;-67
2022/12/13 13:22:34;;;;;;;;;;;19.40;94.30;;;;;;5052180;28;19909;-67
2022/12/13 13:25:07;;;;;;;;;;;19.40;94.70;;;;;;5053787;28;20034;-68
2022/12/13 13:27:40;;;;;;;;;;;19.30;94.80;;;;;;5053481;28;19920;-66
2022/12/13 13:30:18;;;;;;;;;;;19.30;95.10;;;;;;5053939;28;19912;-68
2022/12/13 13:32:45;;;;;;;;;;;19.30;95.30;;;;;;5052430;28;19966;-69
2022/12/13 13:35:35;;;;;;;;;;;19.20;95.40;;;;;;5033736;28;20255;-73
2022/12/13 13:38:02;;;;;;;;;;;19.10;95.50;;;;;;5033828;28;20353;-69
2022/12/13 13:40:36;;;;;;;;;;;19.10;96.00;;;;;;5034914;28;20241;-68
2022/12/13 13:43:07;;;;;;;;;;;19.10;95.90;;;;;;5034173;28;20012;-67
2022/12/13 13:45:49;;;;;;;;;;;19.00;96.00;;;;;;5034040;28;19916;-67
2022/12/13 13:48:36;;;;;;;;;;;19.00;96.40;;;;;;5034681;28;19920;-72
2022/12/13 13:51:21;;;;;;;;;;;19.00;96.70;;;;;;5034787;28;19958;-68
2022/12/13 13:54:03;;;;;;;;;;;18.90;96.80;;;;;;5034595;28;19917;-69
2022/12/13 13:56:59;;;;;;;;;;;18.90;96.90;;;;;;5034268;28;20336;-73
2022/12/13 13:59:29;;;;;;;;;;;18.90;96.90;;;;;;5020176;28;20004;-67
2022/12/13 14:02:01;;;;;;;;;;;18.90;97.30;;;;;;5035190;28;20369;-72
2022/12/13 14:04:43;;;;;;;;;;;18.90;97.30;;;;;;5046184;28;19913;-69
2022/12/13 14:07:16;;;;;;;;;;;18.80;97.70;;;;;;5053638;28;20392;-66
2022/12/13 14:09:43;;;;;;;;;;;18.80;97.80;;;;;;5054587;28;19916;-70
2022/12/13 14:12:27;;;;;;;;;;;18.80;97.70;;;;;;5053631;28;20361;-68
2022/12/13 14:15:19;;;;;;;;;;;18.80;97.70;;;;;;5047234;28;19928;-67
2022/12/13 14:17:58;;;;;;;;;;;18.80;97.80;;;;;;5040204;28;20337;-69
2022/12/13 14:20:28;;;;;;;;;;;18.80;97.70;;;;;;5053693;28;19912;-68
2022/12/13 14:23:07;;;;;;;;;;;18.80;97.70;;;;;;5054048;28;19908;-70
2022/12/13 14:25:42;;;;;;;;;;;18.80;97.70;;;;;;5054931;28;19973;-68
2022/12/13 14:28:20;;;;;;;;;;;18.80;97.80;;;;;;5052849;28;19909;-69
2022/12/13 14:30:47;;;;;;;;;;;18.70;97.90;;;;;;5055650;28;19908;-68
2022/12/13 14:33:24;;;;;;;;;;;18.80;98.10;;;;;;5053592;28;19908;-68
2022/12/13 14:35:51;;;;;;;;;;;18.80;98.30;;;;;;5053393;28;19961;-68